Impacts METAR Board
IDs:

KLAS - Las Vegas/McCarran I, NV, US

Updated at: 1300 UTC 30 Mar 2020
Potential Impact None Slight Moderate High
Time 30/01Z 30/02Z 30/03Z 30/04Z 30/05Z 30/06Z 30/07Z 30/08Z 30/09Z 30/10Z 30/11Z 30/12Z 30/13Z
Temp60 58 58 57 56 55 54 53 51 51 50 49 49
Dewpt38 38 37 36 37 38 38 37 35 35 34 34 35
Altim29.94 29.95 29.97 30.00 30.02 30.04 30.05 30.05 30.05 30.07 30.08 30.11 30.14
VIS10 10 10 10 10 10 10 10 10 10 10 10 10
CIG120 110 110 110 110 110 -- -- -- -- -- -- --
CoverBKNBKNBKNBKNBKNBKNFEWFEWCLRCLRCLRCLRCLR
FltCatVFRVFRVFRVFRVFRVFRVFRVFRVFRVFRVFRVFRVFR
WX--------------------------
WDir350320350180002000200210160190210
WSpd17 10 8 3 0 0 3 0 6 4 3 6 5
WGst-- -- -- -- -- -- -- -- -- -- -- -- --
Raw hourly METARs
KLAS 300056Z 35017KT 10SM SCT090 BKN120 BKN200 16/03 A2994 RMK AO2 WSHFT 2343 RAB09E32 SLP129 VIRGA DSNT NE DSNT SE-S AND DSNT NW P0002 T01560033
KLAS 300156Z 32010KT 10SM SCT080 BKN110 14/03 A2995 RMK AO2 SLP134 VIRGA DSNT NE DSNT SE-S AND DSNT NW T01440033
KLAS 300256Z 35008KT 10SM SCT080 BKN110 14/03 A2997 RMK AO2 SLP141 60002 T01440028 52019
KLAS 300356Z 18003KT 10SM FEW080 BKN110 14/02 A3000 RMK AO2 SLP150 T01390022
KLAS 300456Z 00000KT 10SM FEW075 BKN110 13/03 A3002 RMK AO2 SLP157 T01330028
KLAS 300556Z 00000KT 10SM SCT080 BKN110 13/03 A3004 RMK AO2 SLP162 60002 T01280033 10167 20122 51020
KLAS 300656Z 20003KT 10SM FEW075 12/03 A3005 RMK AO2 SLP167 T01220033
KLAS 300756Z 00000KT 10SM FEW075 12/03 A3005 RMK AO2 SLP167 T01170028 401940117
KLAS 300856Z 20006KT 10SM CLR 11/02 A3005 RMK AO2 SLP168 T01060017 51005
KLAS 300956Z 21004KT 10SM CLR 11/02 A3007 RMK AO2 SLP173 T01060017
KLAS 301056Z 16003KT 10SM CLR 10/01 A3008 RMK AO2 SLP177 T01000011
KLAS 301156Z 19006KT 10SM CLR 09/01 A3011 RMK AO2 SLP190 70002 T00940011 10128 20094 53019
KLAS 301256Z 21005KT 10SM CLR 09/02 A3014 RMK AO2 SLP201 T00940017



Page loaded:  13:24 UTC  |   06:24 AM Pacific  |   07:24 AM Mountain  |   08:24 AM Central  |   09:24 AM Eastern

 

ADVISORIES

FORECASTS

FORECASTS

OBSERVATIONS

USER TOOLS

ABOUT US